sensor_id;sensor_type;location;lat;lon;timestamp;temperature;humidity
61386;DHT22;47256;18.904;-99.054;2023-05-16T00:00:47;31.60;45.10
61386;DHT22;47256;18.904;-99.054;2023-05-16T00:03:14;31.60;44.70
61386;DHT22;47256;18.904;-99.054;2023-05-16T00:05:42;31.60;45.20
61386;DHT22;47256;18.904;-99.054;2023-05-16T00:08:09;31.50;45.00
61386;DHT22;47256;18.904;-99.054;2023-05-16T00:10:36;31.50;45.20
61386;DHT22;47256;18.904;-99.054;2023-05-16T00:13:04;31.50;45.70
61386;DHT22;47256;18.904;-99.054;2023-05-16T00:15:32;31.50;45.20
61386;DHT22;47256;18.904;-99.054;2023-05-16T00:18:00;31.40;45.70
61386;DHT22;47256;18.904;-99.054;2023-05-16T00:20:27;31.40;44.90
61386;DHT22;47256;18.904;-99.054;2023-05-16T00:22:55;31.40;45.70
61386;DHT22;47256;18.904;-99.054;2023-05-16T00:25:26;31.30;44.60
61386;DHT22;47256;18.904;-99.054;2023-05-16T00:27:54;31.20;44.70
61386;DHT22;47256;18.904;-99.054;2023-05-16T00:30:21;31.20;43.70
61386;DHT22;47256;18.904;-99.054;2023-05-16T00:32:53;31.10;43.90
61386;DHT22;47256;18.904;-99.054;2023-05-16T00:35:20;31.00;44.10
61386;DHT22;47256;18.904;-99.054;2023-05-16T00:37:50;31.00;44.30
61386;DHT22;47256;18.904;-99.054;2023-05-16T00:40:17;31.00;44.10
61386;DHT22;47256;18.904;-99.054;2023-05-16T00:42:44;31.00;44.20
61386;DHT22;47256;18.904;-99.054;2023-05-16T00:45:12;31.00;44.00
61386;DHT22;47256;18.904;-99.054;2023-05-16T00:47:39;31.00;43.60
61386;DHT22;47256;18.904;-99.054;2023-05-16T00:50:06;31.00;44.60
61386;DHT22;47256;18.904;-99.054;2023-05-16T00:52:34;30.90;44.40
61386;DHT22;47256;18.904;-99.054;2023-05-16T00:55:03;30.90;44.30
61386;DHT22;47256;18.904;-99.054;2023-05-16T00:57:30;30.90;44.20
61386;DHT22;47256;18.904;-99.054;2023-05-16T00:59:57;31.00;43.70
61386;DHT22;47256;18.904;-99.054;2023-05-16T01:02:25;30.90;43.70
61386;DHT22;47256;18.904;-99.054;2023-05-16T01:04:54;30.90;45.00
61386;DHT22;47256;18.904;-99.054;2023-05-16T01:07:23;30.90;45.20
61386;DHT22;47256;18.904;-99.054;2023-05-16T01:09:51;30.80;46.30
61386;DHT22;47256;18.904;-99.054;2023-05-16T01:15:14;30.70;47.60
61386;DHT22;47256;18.904;-99.054;2023-05-16T01:28:47;29.70;48.30
61386;DHT22;47256;18.904;-99.054;2023-05-16T01:31:15;29.60;48.60
61386;DHT22;47256;18.904;-99.054;2023-05-16T01:33:44;29.50;48.90
61386;DHT22;47256;18.904;-99.054;2023-05-16T01:36:18;29.50;49.20
61386;DHT22;47256;18.904;-99.054;2023-05-16T01:42:08;29.40;49.00
61386;DHT22;47256;18.904;-99.054;2023-05-16T01:44:49;29.30;49.40
61386;DHT22;47256;18.904;-99.054;2023-05-16T01:47:19;29.40;48.80
61386;DHT22;47256;18.904;-99.054;2023-05-16T01:50:13;29.50;49.60
61386;DHT22;47256;18.904;-99.054;2023-05-16T01:52:58;29.50;49.60
61386;DHT22;47256;18.904;-99.054;2023-05-16T01:55:47;29.40;49.00
61386;DHT22;47256;18.904;-99.054;2023-05-16T01:58:19;29.40;48.40
61386;DHT22;47256;18.904;-99.054;2023-05-16T02:00:47;29.50;48.50
61386;DHT22;47256;18.904;-99.054;2023-05-16T02:03:14;29.50;49.90
61386;DHT22;47256;18.904;-99.054;2023-05-16T02:05:42;29.40;49.90
61386;DHT22;47256;18.904;-99.054;2023-05-16T02:08:13;29.40;49.90
61386;DHT22;47256;18.904;-99.054;2023-05-16T02:10:41;29.50;51.10
61386;DHT22;47256;18.904;-99.054;2023-05-16T02:13:08;29.50;50.90
61386;DHT22;47256;18.904;-99.054;2023-05-16T02:15:36;29.50;51.00
61386;DHT22;47256;18.904;-99.054;2023-05-16T02:18:04;29.50;50.70
61386;DHT22;47256;18.904;-99.054;2023-05-16T02:20:31;29.50;49.90
61386;DHT22;47256;18.904;-99.054;2023-05-16T02:23:00;29.50;50.00
61386;DHT22;47256;18.904;-99.054;2023-05-16T02:25:29;29.50;50.10
61386;DHT22;47256;18.904;-99.054;2023-05-16T02:27:56;29.40;50.30
61386;DHT22;47256;18.904;-99.054;2023-05-16T02:30:23;29.40;51.30
61386;DHT22;47256;18.904;-99.054;2023-05-16T02:32:51;29.40;51.10
61386;DHT22;47256;18.904;-99.054;2023-05-16T02:35:19;29.30;51.70
61386;DHT22;47256;18.904;-99.054;2023-05-16T02:37:46;29.30;51.70
61386;DHT22;47256;18.904;-99.054;2023-05-16T02:40:14;29.30;52.30
61386;DHT22;47256;18.904;-99.054;2023-05-16T02:42:41;29.30;51.90
61386;DHT22;47256;18.904;-99.054;2023-05-16T02:45:08;29.20;51.00
61386;DHT22;47256;18.904;-99.054;2023-05-16T02:47:36;29.20;51.40
61386;DHT22;47256;18.904;-99.054;2023-05-16T02:50:03;29.20;51.50
61386;DHT22;47256;18.904;-99.054;2023-05-16T02:52:33;29.20;51.20
61386;DHT22;47256;18.904;-99.054;2023-05-16T02:55:01;29.10;51.10
61386;DHT22;47256;18.904;-99.054;2023-05-16T02:57:28;29.10;51.80
61386;DHT22;47256;18.904;-99.054;2023-05-16T02:59:55;29.10;52.20
61386;DHT22;47256;18.904;-99.054;2023-05-16T03:02:23;29.10;52.20
61386;DHT22;47256;18.904;-99.054;2023-05-16T03:04:50;29.10;52.00
61386;DHT22;47256;18.904;-99.054;2023-05-16T03:07:17;28.90;52.50
61386;DHT22;47256;18.904;-99.054;2023-05-16T03:09:44;28.90;53.10
61386;DHT22;47256;18.904;-99.054;2023-05-16T03:12:11;28.80;52.50
61386;DHT22;47256;18.904;-99.054;2023-05-16T03:14:39;28.70;52.40
61386;DHT22;47256;18.904;-99.054;2023-05-16T03:17:06;28.70;53.10
61386;DHT22;47256;18.904;-99.054;2023-05-16T03:19:33;28.60;53.70
61386;DHT22;47256;18.904;-99.054;2023-05-16T03:22:00;28.50;53.50
61386;DHT22;47256;18.904;-99.054;2023-05-16T03:24:28;28.50;55.00
61386;DHT22;47256;18.904;-99.054;2023-05-16T03:26:56;28.40;53.00
61386;DHT22;47256;18.904;-99.054;2023-05-16T03:29:25;28.30;53.30
61386;DHT22;47256;18.904;-99.054;2023-05-16T03:31:52;28.30;53.50
61386;DHT22;47256;18.904;-99.054;2023-05-16T03:34:20;28.30;54.20
61386;DHT22;47256;18.904;-99.054;2023-05-16T03:36:51;28.10;53.60
61386;DHT22;47256;18.904;-99.054;2023-05-16T03:39:19;28.00;53.30
61386;DHT22;47256;18.904;-99.054;2023-05-16T03:41:46;28.00;53.70
61386;DHT22;47256;18.904;-99.054;2023-05-16T03:44:13;28.10;54.10
61386;DHT22;47256;18.904;-99.054;2023-05-16T03:46:40;28.00;54.60
61386;DHT22;47256;18.904;-99.054;2023-05-16T03:49:07;28.10;55.00
61386;DHT22;47256;18.904;-99.054;2023-05-16T03:51:34;28.10;55.30
61386;DHT22;47256;18.904;-99.054;2023-05-16T03:54:02;28.00;54.90
61386;DHT22;47256;18.904;-99.054;2023-05-16T03:56:29;28.00;54.90
61386;DHT22;47256;18.904;-99.054;2023-05-16T03:58:56;28.00;54.10
61386;DHT22;47256;18.904;-99.054;2023-05-16T04:01:23;27.90;54.80
61386;DHT22;47256;18.904;-99.054;2023-05-16T04:03:51;27.80;55.10
61386;DHT22;47256;18.904;-99.054;2023-05-16T04:06:18;27.90;55.70
61386;DHT22;47256;18.904;-99.054;2023-05-16T04:08:45;27.90;55.40
61386;DHT22;47256;18.904;-99.054;2023-05-16T04:11:12;27.90;55.90
61386;DHT22;47256;18.904;-99.054;2023-05-16T04:13:39;27.80;56.50
61386;DHT22;47256;18.904;-99.054;2023-05-16T04:16:07;27.60;57.40
61386;DHT22;47256;18.904;-99.054;2023-05-16T04:18:34;27.50;56.60
61386;DHT22;47256;18.904;-99.054;2023-05-16T04:21:02;27.50;56.50
61386;DHT22;47256;18.904;-99.054;2023-05-16T04:23:30;27.60;56.50
61386;DHT22;47256;18.904;-99.054;2023-05-16T04:25:57;27.60;56.50
61386;DHT22;47256;18.904;-99.054;2023-05-16T04:28:25;27.60;56.70
61386;DHT22;47256;18.904;-99.054;2023-05-16T04:30:52;27.60;56.10
61386;DHT22;47256;18.904;-99.054;2023-05-16T04:33:20;27.50;56.30
61386;DHT22;47256;18.904;-99.054;2023-05-16T04:35:47;27.40;56.20
61386;DHT22;47256;18.904;-99.054;2023-05-16T04:38:14;27.30;55.80
61386;DHT22;47256;18.904;-99.054;2023-05-16T04:40:42;27.30;56.00
61386;DHT22;47256;18.904;-99.054;2023-05-16T04:43:09;27.30;56.10
61386;DHT22;47256;18.904;-99.054;2023-05-16T04:45:36;27.40;55.80
61386;DHT22;47256;18.904;-99.054;2023-05-16T04:48:03;27.40;56.90
61386;DHT22;47256;18.904;-99.054;2023-05-16T04:50:31;27.30;56.80
61386;DHT22;47256;18.904;-99.054;2023-05-16T04:52:58;27.00;57.40
61386;DHT22;47256;18.904;-99.054;2023-05-16T04:55:25;26.90;57.90
61386;DHT22;47256;18.904;-99.054;2023-05-16T04:57:52;26.90;57.50
61386;DHT22;47256;18.904;-99.054;2023-05-16T05:00:19;26.90;58.10
61386;DHT22;47256;18.904;-99.054;2023-05-16T05:02:47;27.00;58.20
61386;DHT22;47256;18.904;-99.054;2023-05-16T05:05:14;26.90;58.40
61386;DHT22;47256;18.904;-99.054;2023-05-16T05:07:42;26.90;57.90
61386;DHT22;47256;18.904;-99.054;2023-05-16T05:10:09;26.90;57.20
61386;DHT22;47256;18.904;-99.054;2023-05-16T05:12:37;26.90;56.60
61386;DHT22;47256;18.904;-99.054;2023-05-16T05:15:05;26.90;56.40
61386;DHT22;47256;18.904;-99.054;2023-05-16T05:17:32;26.90;56.00
61386;DHT22;47256;18.904;-99.054;2023-05-16T05:20:00;26.90;55.70
61386;DHT22;47256;18.904;-99.054;2023-05-16T05:22:27;26.80;55.60
61386;DHT22;47256;18.904;-99.054;2023-05-16T05:24:54;26.90;55.60
61386;DHT22;47256;18.904;-99.054;2023-05-16T05:27:21;27.00;56.40
61386;DHT22;47256;18.904;-99.054;2023-05-16T05:29:48;26.90;56.10
61386;DHT22;47256;18.904;-99.054;2023-05-16T05:32:16;27.00;56.80
61386;DHT22;47256;18.904;-99.054;2023-05-16T05:34:43;27.00;56.10
61386;DHT22;47256;18.904;-99.054;2023-05-16T05:37:10;27.00;55.60
61386;DHT22;47256;18.904;-99.054;2023-05-16T05:39:37;27.10;56.00
61386;DHT22;47256;18.904;-99.054;2023-05-16T05:42:05;27.10;56.30
61386;DHT22;47256;18.904;-99.054;2023-05-16T05:44:32;27.10;57.00
61386;DHT22;47256;18.904;-99.054;2023-05-16T05:46:59;27.10;56.90
61386;DHT22;47256;18.904;-99.054;2023-05-16T05:49:26;27.10;56.60
61386;DHT22;47256;18.904;-99.054;2023-05-16T05:51:54;27.10;56.80
61386;DHT22;47256;18.904;-99.054;2023-05-16T05:54:21;27.10;56.60
61386;DHT22;47256;18.904;-99.054;2023-05-16T05:56:49;27.10;56.60
61386;DHT22;47256;18.904;-99.054;2023-05-16T05:59:16;27.00;57.20
61386;DHT22;47256;18.904;-99.054;2023-05-16T06:01:43;27.00;57.70
61386;DHT22;47256;18.904;-99.054;2023-05-16T06:04:10;27.00;58.00
61386;DHT22;47256;18.904;-99.054;2023-05-16T06:06:38;27.10;58.30
61386;DHT22;47256;18.904;-99.054;2023-05-16T06:09:05;27.10;59.10
61386;DHT22;47256;18.904;-99.054;2023-05-16T06:11:32;27.10;58.70
61386;DHT22;47256;18.904;-99.054;2023-05-16T06:13:59;27.10;58.70
61386;DHT22;47256;18.904;-99.054;2023-05-16T06:16:27;27.20;59.20
61386;DHT22;47256;18.904;-99.054;2023-05-16T06:18:54;27.10;59.90
61386;DHT22;47256;18.904;-99.054;2023-05-16T06:21:22;27.10;60.60
61386;DHT22;47256;18.904;-99.054;2023-05-16T06:23:50;27.10;60.70
61386;DHT22;47256;18.904;-99.054;2023-05-16T06:26:17;27.10;59.90
61386;DHT22;47256;18.904;-99.054;2023-05-16T06:28:44;27.10;60.40
61386;DHT22;47256;18.904;-99.054;2023-05-16T06:31:12;27.10;60.70
61386;DHT22;47256;18.904;-99.054;2023-05-16T06:33:39;27.00;60.80
61386;DHT22;47256;18.904;-99.054;2023-05-16T06:36:06;27.00;61.10
61386;DHT22;47256;18.904;-99.054;2023-05-16T06:38:33;27.00;61.50
61386;DHT22;47256;18.904;-99.054;2023-05-16T06:41:00;27.00;62.50
61386;DHT22;47256;18.904;-99.054;2023-05-16T06:43:27;27.00;62.30
61386;DHT22;47256;18.904;-99.054;2023-05-16T06:45:54;27.00;62.70
61386;DHT22;47256;18.904;-99.054;2023-05-16T06:48:21;26.80;62.70
61386;DHT22;47256;18.904;-99.054;2023-05-16T06:50:49;26.70;62.70
61386;DHT22;47256;18.904;-99.054;2023-05-16T06:53:19;26.70;61.50
61386;DHT22;47256;18.904;-99.054;2023-05-16T06:55:46;26.70;60.60
61386;DHT22;47256;18.904;-99.054;2023-05-16T06:58:13;26.70;60.60
61386;DHT22;47256;18.904;-99.054;2023-05-16T07:00:40;26.60;60.00
61386;DHT22;47256;18.904;-99.054;2023-05-16T07:03:08;26.40;60.00
61386;DHT22;47256;18.904;-99.054;2023-05-16T07:05:36;26.40;60.00
61386;DHT22;47256;18.904;-99.054;2023-05-16T07:08:03;26.30;59.90
61386;DHT22;47256;18.904;-99.054;2023-05-16T07:10:30;26.20;60.50
61386;DHT22;47256;18.904;-99.054;2023-05-16T07:12:58;26.10;60.60
61386;DHT22;47256;18.904;-99.054;2023-05-16T07:15:26;26.10;60.50
61386;DHT22;47256;18.904;-99.054;2023-05-16T07:17:54;26.10;61.80
61386;DHT22;47256;18.904;-99.054;2023-05-16T07:20:20;26.10;60.50
61386;DHT22;47256;18.904;-99.054;2023-05-16T07:22:49;26.10;60.70
61386;DHT22;47256;18.904;-99.054;2023-05-16T07:25:15;26.10;60.40
61386;DHT22;47256;18.904;-99.054;2023-05-16T07:27:43;26.20;60.50
61386;DHT22;47256;18.904;-99.054;2023-05-16T07:30:12;26.10;60.50
61386;DHT22;47256;18.904;-99.054;2023-05-16T07:32:39;26.20;60.20
61386;DHT22;47256;18.904;-99.054;2023-05-16T07:35:06;26.20;59.80
61386;DHT22;47256;18.904;-99.054;2023-05-16T07:37:34;26.10;60.00
61386;DHT22;47256;18.904;-99.054;2023-05-16T07:40:01;26.10;60.10
61386;DHT22;47256;18.904;-99.054;2023-05-16T07:42:29;26.10;59.90
61386;DHT22;47256;18.904;-99.054;2023-05-16T07:44:56;26.10;60.60
61386;DHT22;47256;18.904;-99.054;2023-05-16T07:47:23;26.10;60.10
61386;DHT22;47256;18.904;-99.054;2023-05-16T07:49:50;26.10;60.00
61386;DHT22;47256;18.904;-99.054;2023-05-16T07:52:17;26.10;60.30
61386;DHT22;47256;18.904;-99.054;2023-05-16T07:54:46;26.00;60.10
61386;DHT22;47256;18.904;-99.054;2023-05-16T07:57:14;26.00;60.00
61386;DHT22;47256;18.904;-99.054;2023-05-16T07:59:42;26.00;60.00
61386;DHT22;47256;18.904;-99.054;2023-05-16T08:02:10;25.90;60.20
61386;DHT22;47256;18.904;-99.054;2023-05-16T08:04:37;25.90;60.00
61386;DHT22;47256;18.904;-99.054;2023-05-16T08:07:04;25.80;60.20
61386;DHT22;47256;18.904;-99.054;2023-05-16T08:09:31;25.90;61.10
61386;DHT22;47256;18.904;-99.054;2023-05-16T08:11:58;25.80;61.20
61386;DHT22;47256;18.904;-99.054;2023-05-16T08:14:30;25.80;61.40
61386;DHT22;47256;18.904;-99.054;2023-05-16T08:16:58;25.80;61.20
61386;DHT22;47256;18.904;-99.054;2023-05-16T08:19:26;25.70;61.10
61386;DHT22;47256;18.904;-99.054;2023-05-16T08:21:54;25.70;61.90
61386;DHT22;47256;18.904;-99.054;2023-05-16T08:24:23;25.60;61.90
61386;DHT22;47256;18.904;-99.054;2023-05-16T08:26:50;25.50;62.30
61386;DHT22;47256;18.904;-99.054;2023-05-16T08:29:17;25.50;62.20
61386;DHT22;47256;18.904;-99.054;2023-05-16T08:31:44;25.40;62.70
61386;DHT22;47256;18.904;-99.054;2023-05-16T08:34:12;25.30;64.20
61386;DHT22;47256;18.904;-99.054;2023-05-16T08:36:39;25.30;63.70
61386;DHT22;47256;18.904;-99.054;2023-05-16T08:39:07;25.20;63.80
61386;DHT22;47256;18.904;-99.054;2023-05-16T08:41:36;25.10;64.80
61386;DHT22;47256;18.904;-99.054;2023-05-16T08:44:04;25.10;65.40
61386;DHT22;47256;18.904;-99.054;2023-05-16T08:46:32;25.00;65.20
61386;DHT22;47256;18.904;-99.054;2023-05-16T08:49:04;25.00;64.60
61386;DHT22;47256;18.904;-99.054;2023-05-16T08:51:34;24.90;65.00
61386;DHT22;47256;18.904;-99.054;2023-05-16T08:54:07;24.90;64.40
61386;DHT22;47256;18.904;-99.054;2023-05-16T08:56:38;25.00;65.20
61386;DHT22;47256;18.904;-99.054;2023-05-16T08:59:06;25.00;64.40
61386;DHT22;47256;18.904;-99.054;2023-05-16T09:01:34;25.00;64.10
61386;DHT22;47256;18.904;-99.054;2023-05-16T09:04:03;25.00;63.90
61386;DHT22;47256;18.904;-99.054;2023-05-16T09:06:31;25.00;63.80
61386;DHT22;47256;18.904;-99.054;2023-05-16T09:08:58;25.00;63.60
61386;DHT22;47256;18.904;-99.054;2023-05-16T09:11:25;24.90;63.20
61386;DHT22;47256;18.904;-99.054;2023-05-16T09:13:52;24.90;63.00
61386;DHT22;47256;18.904;-99.054;2023-05-16T09:16:20;24.90;62.00
61386;DHT22;47256;18.904;-99.054;2023-05-16T09:18:55;24.80;64.00
61386;DHT22;47256;18.904;-99.054;2023-05-16T09:21:27;24.60;64.70
61386;DHT22;47256;18.904;-99.054;2023-05-16T09:23:55;24.50;64.50
61386;DHT22;47256;18.904;-99.054;2023-05-16T09:26:22;24.50;64.40
61386;DHT22;47256;18.904;-99.054;2023-05-16T09:28:53;24.60;64.50
61386;DHT22;47256;18.904;-99.054;2023-05-16T09:31:24;24.60;64.10
61386;DHT22;47256;18.904;-99.054;2023-05-16T09:33:58;24.60;63.90
61386;DHT22;47256;18.904;-99.054;2023-05-16T09:36:25;24.60;64.40
61386;DHT22;47256;18.904;-99.054;2023-05-16T09:38:53;24.60;64.90
61386;DHT22;47256;18.904;-99.054;2023-05-16T09:41:21;24.50;65.20
61386;DHT22;47256;18.904;-99.054;2023-05-16T09:43:48;24.40;66.50
61386;DHT22;47256;18.904;-99.054;2023-05-16T09:46:16;24.40;65.40
61386;DHT22;47256;18.904;-99.054;2023-05-16T09:48:46;24.40;65.40
61386;DHT22;47256;18.904;-99.054;2023-05-16T09:51:14;24.40;65.00
61386;DHT22;47256;18.904;-99.054;2023-05-16T09:53:42;24.40;65.40
61386;DHT22;47256;18.904;-99.054;2023-05-16T09:56:11;24.40;65.50
61386;DHT22;47256;18.904;-99.054;2023-05-16T09:58:40;24.40;65.60
61386;DHT22;47256;18.904;-99.054;2023-05-16T10:01:09;24.40;65.20
61386;DHT22;47256;18.904;-99.054;2023-05-16T10:03:38;24.30;66.00
61386;DHT22;47256;18.904;-99.054;2023-05-16T10:06:06;24.30;66.20
61386;DHT22;47256;18.904;-99.054;2023-05-16T10:08:35;24.20;67.20
61386;DHT22;47256;18.904;-99.054;2023-05-16T10:11:04;24.20;67.60
61386;DHT22;47256;18.904;-99.054;2023-05-16T10:13:34;24.20;67.30
61386;DHT22;47256;18.904;-99.054;2023-05-16T10:16:10;24.10;67.50
61386;DHT22;47256;18.904;-99.054;2023-05-16T10:18:38;24.20;67.70
61386;DHT22;47256;18.904;-99.054;2023-05-16T10:21:07;24.10;68.30
61386;DHT22;47256;18.904;-99.054;2023-05-16T10:23:35;24.10;68.50
61386;DHT22;47256;18.904;-99.054;2023-05-16T10:26:05;24.00;68.20
61386;DHT22;47256;18.904;-99.054;2023-05-16T10:28:32;23.90;68.40
61386;DHT22;47256;18.904;-99.054;2023-05-16T10:31:00;23.90;68.80
61386;DHT22;47256;18.904;-99.054;2023-05-16T10:33:28;23.90;69.00
61386;DHT22;47256;18.904;-99.054;2023-05-16T10:35:56;23.90;69.10
61386;DHT22;47256;18.904;-99.054;2023-05-16T10:38:25;23.90;69.20
61386;DHT22;47256;18.904;-99.054;2023-05-16T10:40:54;23.80;69.10
61386;DHT22;47256;18.904;-99.054;2023-05-16T10:43:26;23.80;69.20
61386;DHT22;47256;18.904;-99.054;2023-05-16T10:48:32;23.70;69.80
61386;DHT22;47256;18.904;-99.054;2023-05-16T10:51:01;23.60;69.60
61386;DHT22;47256;18.904;-99.054;2023-05-16T10:53:30;23.50;70.20
61386;DHT22;47256;18.904;-99.054;2023-05-16T11:06:25;23.30;72.00
61386;DHT22;47256;18.904;-99.054;2023-05-16T11:11:53;23.00;73.50
61386;DHT22;47256;18.904;-99.054;2023-05-16T11:17:13;23.10;73.10
61386;DHT22;47256;18.904;-99.054;2023-05-16T11:19:57;23.20;73.40
61386;DHT22;47256;18.904;-99.054;2023-05-16T11:22:27;23.20;72.80
61386;DHT22;47256;18.904;-99.054;2023-05-16T11:25:03;23.20;73.00
61386;DHT22;47256;18.904;-99.054;2023-05-16T11:27:48;22.90;73.30
61386;DHT22;47256;18.904;-99.054;2023-05-16T11:30:17;22.90;72.90
61386;DHT22;47256;18.904;-99.054;2023-05-16T11:32:46;22.90;72.90
61386;DHT22;47256;18.904;-99.054;2023-05-16T11:35:17;23.00;72.70
61386;DHT22;47256;18.904;-99.054;2023-05-16T11:37:44;22.90;73.00
61386;DHT22;47256;18.904;-99.054;2023-05-16T11:40:13;22.80;73.90
61386;DHT22;47256;18.904;-99.054;2023-05-16T11:42:44;22.80;74.10
61386;DHT22;47256;18.904;-99.054;2023-05-16T11:45:16;22.80;74.50
61386;DHT22;47256;18.904;-99.054;2023-05-16T11:47:45;22.90;74.10
61386;DHT22;47256;18.904;-99.054;2023-05-16T11:50:19;23.00;74.20
61386;DHT22;47256;18.904;-99.054;2023-05-16T11:52:49;23.10;74.00
61386;DHT22;47256;18.904;-99.054;2023-05-16T11:55:24;23.10;74.10
61386;DHT22;47256;18.904;-99.054;2023-05-16T11:57:51;23.10;74.00
61386;DHT22;47256;18.904;-99.054;2023-05-16T12:00:23;23.10;73.90
61386;DHT22;47256;18.904;-99.054;2023-05-16T12:02:53;23.10;73.60
61386;DHT22;47256;18.904;-99.054;2023-05-16T12:05:21;23.00;74.60
61386;DHT22;47256;18.904;-99.054;2023-05-16T12:07:52;23.00;74.40
61386;DHT22;47256;18.904;-99.054;2023-05-16T12:10:20;22.90;74.00
61386;DHT22;47256;18.904;-99.054;2023-05-16T12:12:49;23.00;74.00
61386;DHT22;47256;18.904;-99.054;2023-05-16T12:15:20;22.90;73.60
61386;DHT22;47256;18.904;-99.054;2023-05-16T12:17:48;22.90;74.00
61386;DHT22;47256;18.904;-99.054;2023-05-16T12:20:16;22.80;74.40
61386;DHT22;47256;18.904;-99.054;2023-05-16T12:22:45;22.80;74.80
61386;DHT22;47256;18.904;-99.054;2023-05-16T12:25:44;22.80;74.10
61386;DHT22;47256;18.904;-99.054;2023-05-16T12:28:13;22.80;72.90
61386;DHT22;47256;18.904;-99.054;2023-05-16T12:30:43;22.80;72.80
61386;DHT22;47256;18.904;-99.054;2023-05-16T12:33:12;22.80;72.70
61386;DHT22;47256;18.904;-99.054;2023-05-16T12:35:44;22.80;72.70
61386;DHT22;47256;18.904;-99.054;2023-05-16T12:38:13;22.80;73.50
61386;DHT22;47256;18.904;-99.054;2023-05-16T12:40:43;22.80;73.80
61386;DHT22;47256;18.904;-99.054;2023-05-16T12:43:20;22.70;74.60
61386;DHT22;47256;18.904;-99.054;2023-05-16T12:45:53;22.70;74.40
61386;DHT22;47256;18.904;-99.054;2023-05-16T12:48:22;22.70;74.60
61386;DHT22;47256;18.904;-99.054;2023-05-16T12:50:50;22.60;74.30
61386;DHT22;47256;18.904;-99.054;2023-05-16T12:53:18;22.60;74.70
61386;DHT22;47256;18.904;-99.054;2023-05-16T12:55:45;22.60;75.10
61386;DHT22;47256;18.904;-99.054;2023-05-16T12:58:12;22.60;75.80
61386;DHT22;47256;18.904;-99.054;2023-05-16T13:00:39;22.60;74.70
61386;DHT22;47256;18.904;-99.054;2023-05-16T13:03:07;22.70;75.00
61386;DHT22;47256;18.904;-99.054;2023-05-16T13:05:34;22.70;75.10
61386;DHT22;47256;18.904;-99.054;2023-05-16T13:08:02;22.80;75.10
61386;DHT22;47256;18.904;-99.054;2023-05-16T13:10:29;22.80;75.00
61386;DHT22;47256;18.904;-99.054;2023-05-16T13:12:57;22.90;74.80
61386;DHT22;47256;18.904;-99.054;2023-05-16T13:15:25;23.00;75.50
61386;DHT22;47256;18.904;-99.054;2023-05-16T13:17:52;23.10;75.70
61386;DHT22;47256;18.904;-99.054;2023-05-16T13:20:19;23.20;75.10
61386;DHT22;47256;18.904;-99.054;2023-05-16T13:22:47;23.30;74.90
61386;DHT22;47256;18.904;-99.054;2023-05-16T13:25:14;23.30;75.20
61386;DHT22;47256;18.904;-99.054;2023-05-16T13:27:41;23.40;75.40
61386;DHT22;47256;18.904;-99.054;2023-05-16T13:30:09;23.50;75.40
61386;DHT22;47256;18.904;-99.054;2023-05-16T13:32:37;23.50;75.30
61386;DHT22;47256;18.904;-99.054;2023-05-16T13:35:04;23.50;75.80
61386;DHT22;47256;18.904;-99.054;2023-05-16T13:37:31;23.50;75.20
61386;DHT22;47256;18.904;-99.054;2023-05-16T13:39:59;23.50;76.50
61386;DHT22;47256;18.904;-99.054;2023-05-16T13:42:26;23.50;76.00
61386;DHT22;47256;18.904;-99.054;2023-05-16T13:44:54;23.50;75.50
61386;DHT22;47256;18.904;-99.054;2023-05-16T13:47:21;23.60;75.10
61386;DHT22;47256;18.904;-99.054;2023-05-16T13:49:49;23.70;73.60
61386;DHT22;47256;18.904;-99.054;2023-05-16T13:52:17;23.70;74.20
61386;DHT22;47256;18.904;-99.054;2023-05-16T13:54:44;23.80;74.40
61386;DHT22;47256;18.904;-99.054;2023-05-16T13:57:13;23.90;74.40
61386;DHT22;47256;18.904;-99.054;2023-05-16T13:59:40;23.90;74.00
61386;DHT22;47256;18.904;-99.054;2023-05-16T14:02:07;24.00;72.80
61386;DHT22;47256;18.904;-99.054;2023-05-16T14:04:34;24.00;73.40
61386;DHT22;47256;18.904;-99.054;2023-05-16T14:07:01;24.00;74.20
61386;DHT22;47256;18.904;-99.054;2023-05-16T14:09:28;24.00;74.20
61386;DHT22;47256;18.904;-99.054;2023-05-16T14:11:56;24.10;74.50
61386;DHT22;47256;18.904;-99.054;2023-05-16T14:14:23;24.20;74.60
61386;DHT22;47256;18.904;-99.054;2023-05-16T14:16:50;24.30;73.90
61386;DHT22;47256;18.904;-99.054;2023-05-16T14:19:17;24.40;74.40
61386;DHT22;47256;18.904;-99.054;2023-05-16T14:21:45;24.50;73.80
61386;DHT22;47256;18.904;-99.054;2023-05-16T14:24:12;24.60;73.40
61386;DHT22;47256;18.904;-99.054;2023-05-16T14:26:39;24.70;72.80
61386;DHT22;47256;18.904;-99.054;2023-05-16T14:29:06;24.80;71.50
61386;DHT22;47256;18.904;-99.054;2023-05-16T14:31:33;24.90;71.00
61386;DHT22;47256;18.904;-99.054;2023-05-16T14:34:04;25.00;71.10
61386;DHT22;47256;18.904;-99.054;2023-05-16T14:36:31;25.20;69.70
61386;DHT22;47256;18.904;-99.054;2023-05-16T14:38:59;25.20;69.60
61386;DHT22;47256;18.904;-99.054;2023-05-16T14:41:26;25.40;69.50
61386;DHT22;47256;18.904;-99.054;2023-05-16T14:43:54;25.40;67.60
61386;DHT22;47256;18.904;-99.054;2023-05-16T14:46:21;25.50;65.20
61386;DHT22;47256;18.904;-99.054;2023-05-16T14:48:50;25.60;67.00
61386;DHT22;47256;18.904;-99.054;2023-05-16T14:51:18;25.80;67.80
61386;DHT22;47256;18.904;-99.054;2023-05-16T14:53:45;25.80;65.20
61386;DHT22;47256;18.904;-99.054;2023-05-16T14:56:12;25.90;65.30
61386;DHT22;47256;18.904;-99.054;2023-05-16T14:58:40;26.10;64.50
61386;DHT22;47256;18.904;-99.054;2023-05-16T15:01:07;26.10;63.80
61386;DHT22;47256;18.904;-99.054;2023-05-16T15:03:36;26.20;64.10
61386;DHT22;47256;18.904;-99.054;2023-05-16T15:06:03;26.30;64.10
61386;DHT22;47256;18.904;-99.054;2023-05-16T15:08:33;26.50;65.00
61386;DHT22;47256;18.904;-99.054;2023-05-16T15:11:01;26.60;64.30
61386;DHT22;47256;18.904;-99.054;2023-05-16T15:13:28;26.70;64.20
61386;DHT22;47256;18.904;-99.054;2023-05-16T15:15:55;26.80;63.80
61386;DHT22;47256;18.904;-99.054;2023-05-16T15:18:23;26.90;61.30
61386;DHT22;47256;18.904;-99.054;2023-05-16T15:20:50;27.00;61.30
61386;DHT22;47256;18.904;-99.054;2023-05-16T15:23:18;27.00;62.20
61386;DHT22;47256;18.904;-99.054;2023-05-16T15:25:46;27.20;61.40
61386;DHT22;47256;18.904;-99.054;2023-05-16T15:28:13;27.30;60.70
61386;DHT22;47256;18.904;-99.054;2023-05-16T15:30:42;27.30;61.00
61386;DHT22;47256;18.904;-99.054;2023-05-16T15:33:10;27.40;61.40
61386;DHT22;47256;18.904;-99.054;2023-05-16T15:35:37;27.50;60.50
61386;DHT22;47256;18.904;-99.054;2023-05-16T15:38:04;27.60;61.00
61386;DHT22;47256;18.904;-99.054;2023-05-16T15:40:31;27.70;59.60
61386;DHT22;47256;18.904;-99.054;2023-05-16T15:42:58;27.80;60.50
61386;DHT22;47256;18.904;-99.054;2023-05-16T15:45:26;27.90;61.40